createdAt,value
2023-10-30T00:03:42.085Z,6.84
2023-10-30T00:09:43.672Z,6.74
2023-10-30T00:15:45.258Z,6.65
2023-10-30T00:21:46.816Z,6.65
2023-10-30T00:27:48.484Z,6.60
2023-10-30T00:33:50.324Z,6.50
2023-10-30T00:39:51.911Z,6.45
2023-10-30T00:45:53.626Z,6.38
2023-10-30T00:51:55.217Z,6.31
2023-10-30T00:57:56.750Z,6.24
2023-10-30T01:03:58.596Z,6.17
2023-10-30T01:10:00.371Z,6.11
2023-10-30T01:16:02.070Z,6.03
2023-10-30T01:22:03.666Z,5.97
2023-10-30T01:28:05.310Z,5.84
2023-10-30T01:34:07.364Z,5.81
2023-10-30T01:40:10.217Z,5.75
2023-10-30T01:46:11.800Z,5.67
2023-10-30T01:52:14.811Z,5.57
2023-10-30T01:58:17.473Z,5.49
2023-10-30T02:04:19.725Z,5.43
2023-10-30T02:10:21.606Z,5.38
2023-10-30T02:16:23.252Z,5.29
2023-10-30T02:22:24.859Z,5.25
2023-10-30T02:28:26.423Z,5.17
2023-10-30T02:34:28.095Z,5.16
2023-10-30T02:40:29.675Z,5.12
2023-10-30T02:46:31.388Z,5.10
2023-10-30T02:52:33.552Z,5.08
2023-10-30T02:58:35.387Z,5.09
2023-10-30T03:04:37.121Z,5.12
2023-10-30T03:10:38.796Z,5.15
2023-10-30T03:16:40.393Z,5.16
2023-10-30T03:22:42.174Z,5.20
2023-10-30T03:28:43.911Z,5.21
2023-10-30T03:34:45.612Z,5.24
2023-10-30T03:40:47.180Z,5.23
2023-10-30T03:46:48.897Z,5.22
2023-10-30T03:52:51.861Z,5.11
2023-10-30T03:58:53.431Z,5.04
2023-10-30T04:04:55.781Z,5.00
2023-10-30T04:10:58.215Z,5.04
2023-10-30T04:17:02.550Z,5.03
2023-10-30T04:23:04.082Z,5.07
2023-10-30T04:29:05.680Z,5.17
2023-10-30T04:35:07.494Z,5.21
2023-10-30T04:41:09.922Z,5.26
2023-10-30T04:47:11.559Z,5.28
2023-10-30T04:53:13.176Z,5.25
2023-10-30T04:59:14.793Z,5.25
2023-10-30T05:05:16.481Z,5.25
2023-10-30T05:11:18.048Z,5.29
2023-10-30T05:17:19.585Z,5.40
2023-10-30T05:23:21.154Z,5.41
2023-10-30T05:29:22.722Z,5.44
2023-10-30T05:35:24.916Z,5.42
2023-10-30T05:41:26.922Z,5.41
2023-10-30T05:47:28.935Z,5.41
2023-10-30T05:53:30.540Z,5.35
2023-10-30T05:59:32.107Z,5.27
2023-10-30T06:05:33.798Z,5.25
2023-10-30T06:11:35.324Z,5.28
2023-10-30T06:17:36.909Z,5.30
2023-10-30T06:23:38.447Z,5.33
2023-10-30T06:29:40.062Z,5.32
2023-10-30T06:35:41.612Z,5.36
2023-10-30T06:41:43.180Z,5.57
2023-10-30T06:47:45.896Z,5.93
2023-10-30T06:53:47.513Z,6.33
2023-10-30T06:59:54.013Z,6.90
2023-10-30T07:05:55.591Z,7.51
2023-10-30T07:11:57.180Z,8.09
2023-10-30T07:17:59.278Z,8.60
2023-10-30T07:24:00.851Z,9.19
2023-10-30T07:30:03.990Z,9.84
2023-10-30T07:36:06.010Z,10.40
2023-10-30T07:42:07.619Z,11.15
2023-10-30T07:48:09.192Z,12.22
2023-10-30T07:54:10.764Z,13.53
2023-10-30T08:00:13.249Z,15.25
2023-10-30T08:06:15.031Z,16.29
2023-10-30T08:12:17.271Z,17.20
2023-10-30T08:18:19.195Z,18.29
2023-10-30T08:24:20.681Z,18.90
2023-10-30T08:30:22.959Z,19.42
2023-10-30T08:36:24.843Z,20.00
2023-10-30T08:42:26.680Z,19.73
2023-10-30T08:48:28.381Z,19.95
2023-10-30T08:54:30.081Z,19.50
2023-10-30T09:00:31.693Z,18.77
2023-10-30T09:06:33.779Z,20.07
2023-10-30T09:12:35.671Z,20.81
2023-10-30T09:18:37.421Z,21.14
2023-10-30T09:24:39.600Z,21.08
2023-10-30T09:30:41.784Z,21.20
2023-10-30T09:36:43.539Z,20.94
2023-10-30T09:42:52.525Z,20.06
2023-10-30T09:48:56.110Z,19.94
2023-10-30T09:55:00.503Z,19.65
2023-10-30T10:01:02.512Z,19.13
2023-10-30T10:07:04.993Z,18.99
2023-10-30T10:13:07.046Z,18.85
2023-10-30T10:19:23.183Z,18.56
2023-10-30T10:25:24.789Z,18.10
2023-10-30T10:31:26.410Z,17.98
2023-10-30T10:37:28.018Z,17.48
2023-10-30T10:43:31.082Z,17.15
2023-10-30T10:49:32.614Z,16.94
2023-10-30T10:55:47.526Z,16.61
2023-10-30T11:01:52.748Z,16.75
2023-10-30T11:08:04.250Z,16.52
2023-10-30T11:14:43.129Z,16.66
2023-10-30T11:20:54.074Z,16.50
2023-10-30T11:26:55.667Z,16.24
2023-10-30T11:32:58.486Z,16.10
2023-10-30T11:39:00.169Z,16.05
2023-10-30T11:45:21.818Z,15.83
2023-10-30T11:51:24.021Z,15.84
2023-10-30T11:57:26.706Z,16.04
2023-10-30T12:03:28.506Z,15.76
2023-10-30T12:09:30.192Z,15.72
2023-10-30T12:15:31.937Z,15.29
2023-10-30T12:21:33.792Z,15.20
2023-10-30T12:27:35.809Z,15.10
2023-10-30T12:33:40.379Z,14.84
2023-10-30T12:39:42.081Z,14.76
2023-10-30T12:45:43.842Z,14.59
2023-10-30T12:51:45.603Z,14.38
2023-10-30T12:57:47.189Z,14.31
2023-10-30T13:03:49.061Z,14.28
2023-10-30T13:09:51.091Z,14.33
2023-10-30T13:15:52.691Z,14.16
2023-10-30T13:21:54.410Z,13.95
2023-10-30T13:27:56.121Z,13.66
2023-10-30T13:33:57.870Z,13.58
2023-10-30T13:39:59.544Z,13.52
2023-10-30T13:46:01.203Z,13.30
2023-10-30T13:52:03.263Z,13.15
2023-10-30T13:58:04.974Z,13.08
2023-10-30T14:04:06.693Z,12.98
2023-10-30T14:10:09.021Z,12.96
2023-10-30T14:16:10.974Z,12.90
2023-10-30T14:22:12.899Z,12.83
2023-10-30T14:28:15.079Z,12.69
2023-10-30T14:34:16.663Z,12.81
2023-10-30T14:40:18.273Z,12.54
2023-10-30T14:46:19.913Z,12.35
2023-10-30T14:52:21.563Z,12.29
2023-10-30T14:58:23.471Z,12.20
2023-10-30T15:04:25.168Z,12.07
2023-10-30T15:10:28.625Z,12.05
2023-10-30T15:16:30.320Z,11.97
2023-10-30T15:22:32.088Z,11.94
2023-10-30T15:28:33.719Z,11.86
2023-10-30T15:34:35.359Z,11.80
2023-10-30T15:40:37.030Z,11.73
2023-10-30T15:46:49.709Z,11.70
2023-10-30T15:58:59.033Z,11.72
2023-10-30T16:05:02.924Z,11.66
2023-10-30T16:23:14.238Z,11.64
2023-10-30T16:29:16.368Z,11.54
2023-10-30T16:35:17.958Z,11.53
2023-10-30T16:41:20.822Z,11.58
2023-10-30T16:47:22.485Z,11.43
2023-10-30T16:53:24.932Z,11.51
2023-10-30T16:59:26.612Z,11.55
2023-10-30T17:05:28.216Z,11.61
2023-10-30T17:11:30.738Z,11.36
2023-10-30T17:17:32.322Z,11.29
2023-10-30T17:23:34.092Z,11.47
2023-10-30T17:29:35.662Z,11.31
2023-10-30T17:35:37.230Z,11.18
2023-10-30T17:41:38.825Z,11.16
2023-10-30T17:47:40.491Z,11.24
2023-10-30T17:53:43.977Z,11.25
2023-10-30T17:59:45.668Z,11.22
2023-10-30T18:05:47.337Z,11.41
2023-10-30T18:11:49.222Z,11.32
2023-10-30T18:17:51.413Z,11.32
2023-10-30T18:23:53.226Z,11.71
2023-10-30T18:29:55.121Z,11.74
2023-10-30T18:35:56.853Z,11.86
2023-10-30T18:41:58.523Z,11.88
2023-10-30T18:48:00.137Z,11.95
2023-10-30T18:54:02.280Z,11.99
2023-10-30T19:00:05.235Z,11.92
2023-10-30T19:06:06.820Z,11.80
2023-10-30T19:12:08.849Z,11.73
2023-10-30T19:18:14.861Z,11.63
2023-10-30T19:24:19.255Z,11.63
2023-10-30T19:30:22.934Z,11.65
2023-10-30T19:36:24.605Z,11.64
2023-10-30T19:42:26.181Z,11.73
2023-10-30T19:48:27.797Z,11.81
2023-10-30T19:54:29.418Z,11.69
2023-10-30T20:00:31.919Z,11.60
2023-10-30T20:06:36.128Z,11.44
2023-10-30T20:12:41.379Z,11.46
2023-10-30T20:18:45.307Z,11.34
2023-10-30T20:24:47.546Z,11.18
2023-10-30T20:30:49.169Z,11.21
2023-10-30T20:36:51.349Z,11.24
2023-10-30T20:42:54.239Z,11.16
2023-10-30T20:48:58.873Z,11.05
2023-10-30T20:55:00.504Z,10.95
2023-10-30T21:01:02.218Z,10.85
2023-10-30T21:07:04.622Z,10.81
2023-10-30T21:13:06.254Z,10.64
2023-10-30T21:19:07.817Z,10.55
2023-10-30T21:25:09.688Z,10.55
2023-10-30T21:31:11.289Z,10.54
2023-10-30T21:37:12.978Z,10.65
2023-10-30T21:43:14.617Z,10.58
2023-10-30T21:49:18.093Z,10.60
2023-10-30T21:55:20.269Z,10.61
2023-10-30T22:01:23.193Z,10.58
2023-10-30T22:07:25.053Z,10.48
2023-10-30T22:13:27.856Z,10.45
2023-10-30T22:19:29.513Z,10.46
2023-10-30T22:25:31.172Z,10.32
2023-10-30T22:31:33.045Z,10.31
2023-10-30T22:37:34.954Z,10.33
2023-10-30T22:43:36.606Z,10.40
2023-10-30T22:49:38.283Z,10.41
2023-10-30T22:55:39.945Z,10.32
2023-10-30T23:01:41.632Z,10.36
2023-10-30T23:07:43.349Z,10.25
2023-10-30T23:13:45.163Z,10.23
2023-10-30T23:19:46.778Z,10.06
2023-10-30T23:25:48.490Z,10.09
2023-10-30T23:31:50.134Z,10.05
2023-10-30T23:37:53.989Z,10.00
2023-10-30T23:43:57.166Z,9.85
2023-10-30T23:49:58.837Z,9.70
2023-10-30T23:56:00.491Z,9.65
